sensor_id;sensor_type;location;lat;lon;timestamp;P1;durP1;ratioP1;P2;durP2;ratioP2
66741;SDS011;53654;54.152;19.432;2022-07-24T00:01:11;1.70;;;1.40;;
66741;SDS011;53654;54.152;19.432;2022-07-24T00:03:40;1.50;;;1.30;;
66741;SDS011;53654;54.152;19.432;2022-07-24T00:06:08;1.90;;;1.60;;
66741;SDS011;53654;54.152;19.432;2022-07-24T00:08:36;2.20;;;1.70;;
66741;SDS011;53654;54.152;19.432;2022-07-24T00:11:05;2.40;;;1.70;;
66741;SDS011;53654;54.152;19.432;2022-07-24T00:13:33;1.70;;;1.30;;
66741;SDS011;53654;54.152;19.432;2022-07-24T00:16:01;1.40;;;1.30;;
66741;SDS011;53654;54.152;19.432;2022-07-24T00:18:29;3.00;;;2.20;;
66741;SDS011;53654;54.152;19.432;2022-07-24T00:20:57;1.60;;;1.40;;
66741;SDS011;53654;54.152;19.432;2022-07-24T00:23:26;1.40;;;1.40;;
66741;SDS011;53654;54.152;19.432;2022-07-24T00:25:54;4.40;;;1.40;;
66741;SDS011;53654;54.152;19.432;2022-07-24T00:28:23;3.90;;;1.60;;
66741;SDS011;53654;54.152;19.432;2022-07-24T00:30:52;3.10;;;1.40;;
66741;SDS011;53654;54.152;19.432;2022-07-24T00:33:20;2.10;;;1.60;;
66741;SDS011;53654;54.152;19.432;2022-07-24T00:35:48;1.90;;;1.60;;
66741;SDS011;53654;54.152;19.432;2022-07-24T00:38:16;3.30;;;1.50;;
66741;SDS011;53654;54.152;19.432;2022-07-24T00:40:44;3.10;;;1.70;;
66741;SDS011;53654;54.152;19.432;2022-07-24T00:43:13;3.10;;;1.50;;
66741;SDS011;53654;54.152;19.432;2022-07-24T00:45:42;2.30;;;1.70;;
66741;SDS011;53654;54.152;19.432;2022-07-24T00:48:11;4.80;;;1.70;;
66741;SDS011;53654;54.152;19.432;2022-07-24T00:50:40;2.00;;;1.50;;
66741;SDS011;53654;54.152;19.432;2022-07-24T00:53:08;1.50;;;1.40;;
66741;SDS011;53654;54.152;19.432;2022-07-24T00:55:36;1.80;;;1.30;;
66741;SDS011;53654;54.152;19.432;2022-07-24T00:58:05;2.50;;;1.50;;
66741;SDS011;53654;54.152;19.432;2022-07-24T01:00:33;3.70;;;1.90;;
66741;SDS011;53654;54.152;19.432;2022-07-24T01:03:02;2.60;;;1.30;;
66741;SDS011;53654;54.152;19.432;2022-07-24T01:05:30;4.50;;;1.60;;
66741;SDS011;53654;54.152;19.432;2022-07-24T01:07:58;2.80;;;1.40;;
66741;SDS011;53654;54.152;19.432;2022-07-24T01:10:27;2.60;;;1.80;;
66741;SDS011;53654;54.152;19.432;2022-07-24T01:12:55;2.60;;;1.70;;
66741;SDS011;53654;54.152;19.432;2022-07-24T01:15:24;2.30;;;1.70;;
66741;SDS011;53654;54.152;19.432;2022-07-24T01:17:52;2.20;;;1.70;;
66741;SDS011;53654;54.152;19.432;2022-07-24T01:20:21;2.70;;;1.70;;
66741;SDS011;53654;54.152;19.432;2022-07-24T01:22:49;5.50;;;2.30;;
66741;SDS011;53654;54.152;19.432;2022-07-24T01:25:17;3.00;;;1.60;;
66741;SDS011;53654;54.152;19.432;2022-07-24T01:27:45;2.60;;;1.90;;
66741;SDS011;53654;54.152;19.432;2022-07-24T01:30:13;3.30;;;1.80;;
66741;SDS011;53654;54.152;19.432;2022-07-24T01:32:41;4.30;;;2.10;;
66741;SDS011;53654;54.152;19.432;2022-07-24T01:35:09;3.50;;;2.10;;
66741;SDS011;53654;54.152;19.432;2022-07-24T01:37:52;4.70;;;2.00;;
66741;SDS011;53654;54.152;19.432;2022-07-24T01:40:21;3.20;;;2.10;;
66741;SDS011;53654;54.152;19.432;2022-07-24T01:42:49;3.00;;;1.80;;
66741;SDS011;53654;54.152;19.432;2022-07-24T01:45:17;5.10;;;2.00;;
66741;SDS011;53654;54.152;19.432;2022-07-24T01:47:46;4.60;;;2.10;;
66741;SDS011;53654;54.152;19.432;2022-07-24T01:50:15;2.30;;;1.80;;
66741;SDS011;53654;54.152;19.432;2022-07-24T01:52:43;4.60;;;2.30;;
66741;SDS011;53654;54.152;19.432;2022-07-24T01:55:11;3.40;;;2.10;;
66741;SDS011;53654;54.152;19.432;2022-07-24T01:57:40;5.50;;;2.00;;
66741;SDS011;53654;54.152;19.432;2022-07-24T02:00:08;5.40;;;2.20;;
66741;SDS011;53654;54.152;19.432;2022-07-24T02:02:41;3.50;;;2.10;;
66741;SDS011;53654;54.152;19.432;2022-07-24T02:05:12;4.00;;;2.20;;
66741;SDS011;53654;54.152;19.432;2022-07-24T02:07:41;4.30;;;2.10;;
66741;SDS011;53654;54.152;19.432;2022-07-24T02:10:11;5.20;;;2.20;;
66741;SDS011;53654;54.152;19.432;2022-07-24T02:12:40;4.40;;;2.00;;
66741;SDS011;53654;54.152;19.432;2022-07-24T02:15:08;6.50;;;2.10;;
66741;SDS011;53654;54.152;19.432;2022-07-24T02:17:37;3.50;;;2.00;;
66741;SDS011;53654;54.152;19.432;2022-07-24T02:20:05;7.30;;;2.20;;
66741;SDS011;53654;54.152;19.432;2022-07-24T02:22:34;6.90;;;2.40;;
66741;SDS011;53654;54.152;19.432;2022-07-24T02:25:02;4.40;;;2.10;;
66741;SDS011;53654;54.152;19.432;2022-07-24T02:27:31;7.00;;;2.40;;
66741;SDS011;53654;54.152;19.432;2022-07-24T02:29:59;4.90;;;2.20;;
66741;SDS011;53654;54.152;19.432;2022-07-24T02:32:27;4.50;;;2.20;;
66741;SDS011;53654;54.152;19.432;2022-07-24T02:34:55;6.50;;;2.40;;
66741;SDS011;53654;54.152;19.432;2022-07-24T02:37:26;3.10;;;2.50;;
66741;SDS011;53654;54.152;19.432;2022-07-24T02:39:54;8.80;;;2.70;;
66741;SDS011;53654;54.152;19.432;2022-07-24T02:42:23;7.90;;;2.40;;
66741;SDS011;53654;54.152;19.432;2022-07-24T02:44:51;4.30;;;2.60;;
66741;SDS011;53654;54.152;19.432;2022-07-24T02:47:19;6.60;;;2.60;;
66741;SDS011;53654;54.152;19.432;2022-07-24T02:49:47;4.40;;;2.60;;
66741;SDS011;53654;54.152;19.432;2022-07-24T02:52:15;3.00;;;2.50;;
66741;SDS011;53654;54.152;19.432;2022-07-24T02:54:43;6.70;;;2.70;;
66741;SDS011;53654;54.152;19.432;2022-07-24T02:57:11;4.70;;;2.60;;
66741;SDS011;53654;54.152;19.432;2022-07-24T02:59:39;4.70;;;2.50;;
66741;SDS011;53654;54.152;19.432;2022-07-24T03:02:07;3.60;;;2.20;;
66741;SDS011;53654;54.152;19.432;2022-07-24T03:04:35;5.70;;;2.60;;
66741;SDS011;53654;54.152;19.432;2022-07-24T03:07:03;4.70;;;2.60;;
66741;SDS011;53654;54.152;19.432;2022-07-24T03:09:31;4.20;;;2.60;;
66741;SDS011;53654;54.152;19.432;2022-07-24T03:11:59;5.60;;;2.70;;
66741;SDS011;53654;54.152;19.432;2022-07-24T03:14:28;5.10;;;2.50;;
66741;SDS011;53654;54.152;19.432;2022-07-24T03:16:56;3.50;;;2.40;;
66741;SDS011;53654;54.152;19.432;2022-07-24T03:19:24;3.00;;;2.70;;
66741;SDS011;53654;54.152;19.432;2022-07-24T03:21:52;3.10;;;2.50;;
66741;SDS011;53654;54.152;19.432;2022-07-24T03:24:20;4.50;;;2.20;;
66741;SDS011;53654;54.152;19.432;2022-07-24T03:26:48;2.80;;;2.50;;
66741;SDS011;53654;54.152;19.432;2022-07-24T03:29:17;4.90;;;2.60;;
66741;SDS011;53654;54.152;19.432;2022-07-24T03:31:45;5.00;;;2.50;;
66741;SDS011;53654;54.152;19.432;2022-07-24T03:34:14;4.00;;;2.50;;
66741;SDS011;53654;54.152;19.432;2022-07-24T03:36:42;4.30;;;2.40;;
66741;SDS011;53654;54.152;19.432;2022-07-24T03:39:11;3.90;;;2.60;;
66741;SDS011;53654;54.152;19.432;2022-07-24T03:41:39;3.20;;;2.60;;
66741;SDS011;53654;54.152;19.432;2022-07-24T03:44:08;5.70;;;2.40;;
66741;SDS011;53654;54.152;19.432;2022-07-24T03:46:36;3.10;;;2.60;;
66741;SDS011;53654;54.152;19.432;2022-07-24T03:49:04;2.80;;;2.60;;
66741;SDS011;53654;54.152;19.432;2022-07-24T03:51:33;2.90;;;2.50;;
66741;SDS011;53654;54.152;19.432;2022-07-24T03:54:04;4.20;;;2.40;;
66741;SDS011;53654;54.152;19.432;2022-07-24T03:56:32;4.90;;;2.70;;
66741;SDS011;53654;54.152;19.432;2022-07-24T03:59:00;3.50;;;2.50;;
66741;SDS011;53654;54.152;19.432;2022-07-24T04:01:29;2.60;;;2.40;;
66741;SDS011;53654;54.152;19.432;2022-07-24T04:03:57;2.70;;;2.50;;
66741;SDS011;53654;54.152;19.432;2022-07-24T04:06:33;2.30;;;2.10;;
66741;SDS011;53654;54.152;19.432;2022-07-24T04:09:02;2.60;;;2.30;;
66741;SDS011;53654;54.152;19.432;2022-07-24T04:11:33;3.00;;;2.40;;
66741;SDS011;53654;54.152;19.432;2022-07-24T04:14:01;2.60;;;2.40;;
66741;SDS011;53654;54.152;19.432;2022-07-24T04:16:29;2.70;;;2.50;;
66741;SDS011;53654;54.152;19.432;2022-07-24T04:18:58;3.00;;;2.40;;
66741;SDS011;53654;54.152;19.432;2022-07-24T04:21:32;3.90;;;2.60;;
66741;SDS011;53654;54.152;19.432;2022-07-24T04:24:01;3.10;;;2.80;;
66741;SDS011;53654;54.152;19.432;2022-07-24T04:26:29;3.30;;;3.00;;
66741;SDS011;53654;54.152;19.432;2022-07-24T04:28:57;2.40;;;2.20;;
66741;SDS011;53654;54.152;19.432;2022-07-24T04:31:25;3.60;;;2.50;;
66741;SDS011;53654;54.152;19.432;2022-07-24T04:33:55;2.90;;;2.30;;
66741;SDS011;53654;54.152;19.432;2022-07-24T04:36:23;2.80;;;2.30;;
66741;SDS011;53654;54.152;19.432;2022-07-24T04:38:51;2.30;;;2.20;;
66741;SDS011;53654;54.152;19.432;2022-07-24T04:41:19;2.90;;;2.60;;
66741;SDS011;53654;54.152;19.432;2022-07-24T04:43:47;3.10;;;2.80;;
66741;SDS011;53654;54.152;19.432;2022-07-24T04:46:17;2.80;;;2.40;;
66741;SDS011;53654;54.152;19.432;2022-07-24T04:48:46;2.10;;;1.90;;
66741;SDS011;53654;54.152;19.432;2022-07-24T04:51:14;2.00;;;1.90;;
66741;SDS011;53654;54.152;19.432;2022-07-24T04:53:42;2.60;;;2.30;;
66741;SDS011;53654;54.152;19.432;2022-07-24T04:56:10;2.50;;;2.40;;
66741;SDS011;53654;54.152;19.432;2022-07-24T04:58:38;2.30;;;2.20;;
66741;SDS011;53654;54.152;19.432;2022-07-24T05:01:06;3.60;;;2.10;;
66741;SDS011;53654;54.152;19.432;2022-07-24T05:03:35;2.90;;;2.20;;
66741;SDS011;53654;54.152;19.432;2022-07-24T05:06:03;2.60;;;2.30;;
66741;SDS011;53654;54.152;19.432;2022-07-24T05:08:31;2.50;;;2.20;;
66741;SDS011;53654;54.152;19.432;2022-07-24T05:10:59;3.00;;;2.60;;
66741;SDS011;53654;54.152;19.432;2022-07-24T05:13:27;2.50;;;2.40;;
66741;SDS011;53654;54.152;19.432;2022-07-24T05:15:55;3.50;;;2.50;;
66741;SDS011;53654;54.152;19.432;2022-07-24T05:18:24;3.00;;;2.80;;
66741;SDS011;53654;54.152;19.432;2022-07-24T05:20:52;3.30;;;2.80;;
66741;SDS011;53654;54.152;19.432;2022-07-24T05:23:20;2.90;;;2.70;;
66741;SDS011;53654;54.152;19.432;2022-07-24T05:25:48;3.40;;;3.10;;
66741;SDS011;53654;54.152;19.432;2022-07-24T05:28:16;4.20;;;3.40;;
66741;SDS011;53654;54.152;19.432;2022-07-24T05:30:44;3.40;;;3.10;;
66741;SDS011;53654;54.152;19.432;2022-07-24T05:33:13;4.00;;;3.10;;
66741;SDS011;53654;54.152;19.432;2022-07-24T05:35:41;3.70;;;3.30;;
66741;SDS011;53654;54.152;19.432;2022-07-24T05:38:15;3.30;;;2.70;;
66741;SDS011;53654;54.152;19.432;2022-07-24T05:40:43;3.70;;;3.30;;
66741;SDS011;53654;54.152;19.432;2022-07-24T05:43:11;3.40;;;3.10;;
66741;SDS011;53654;54.152;19.432;2022-07-24T05:45:40;3.20;;;2.90;;
66741;SDS011;53654;54.152;19.432;2022-07-24T05:48:08;4.10;;;2.60;;
66741;SDS011;53654;54.152;19.432;2022-07-24T05:50:36;3.20;;;2.50;;
66741;SDS011;53654;54.152;19.432;2022-07-24T05:53:04;3.30;;;2.90;;
66741;SDS011;53654;54.152;19.432;2022-07-24T05:55:32;3.40;;;2.90;;
66741;SDS011;53654;54.152;19.432;2022-07-24T05:58:00;2.80;;;2.50;;
66741;SDS011;53654;54.152;19.432;2022-07-24T06:00:29;2.80;;;2.60;;
66741;SDS011;53654;54.152;19.432;2022-07-24T06:02:57;2.90;;;2.20;;
66741;SDS011;53654;54.152;19.432;2022-07-24T06:05:25;2.40;;;2.30;;
66741;SDS011;53654;54.152;19.432;2022-07-24T06:07:54;3.10;;;2.50;;
66741;SDS011;53654;54.152;19.432;2022-07-24T06:10:22;2.90;;;2.70;;
66741;SDS011;53654;54.152;19.432;2022-07-24T06:12:53;4.80;;;2.60;;
66741;SDS011;53654;54.152;19.432;2022-07-24T06:15:21;3.40;;;2.30;;
66741;SDS011;53654;54.152;19.432;2022-07-24T06:17:49;3.00;;;2.60;;
66741;SDS011;53654;54.152;19.432;2022-07-24T06:20:18;2.70;;;2.50;;
66741;SDS011;53654;54.152;19.432;2022-07-24T06:22:46;3.30;;;2.80;;
66741;SDS011;53654;54.152;19.432;2022-07-24T06:25:16;4.10;;;3.10;;
66741;SDS011;53654;54.152;19.432;2022-07-24T06:27:46;3.40;;;3.10;;
66741;SDS011;53654;54.152;19.432;2022-07-24T06:30:17;3.80;;;3.50;;
66741;SDS011;53654;54.152;19.432;2022-07-24T06:32:47;3.00;;;2.70;;
66741;SDS011;53654;54.152;19.432;2022-07-24T06:35:16;3.70;;;3.30;;
66741;SDS011;53654;54.152;19.432;2022-07-24T06:37:44;3.70;;;2.90;;
66741;SDS011;53654;54.152;19.432;2022-07-24T06:40:15;3.40;;;2.70;;
66741;SDS011;53654;54.152;19.432;2022-07-24T06:42:44;3.30;;;2.90;;
66741;SDS011;53654;54.152;19.432;2022-07-24T06:45:13;3.30;;;3.10;;
66741;SDS011;53654;54.152;19.432;2022-07-24T06:47:42;4.00;;;3.20;;
66741;SDS011;53654;54.152;19.432;2022-07-24T06:50:11;3.50;;;2.70;;
66741;SDS011;53654;54.152;19.432;2022-07-24T06:52:40;2.80;;;2.60;;
66741;SDS011;53654;54.152;19.432;2022-07-24T06:55:09;3.30;;;3.10;;
66741;SDS011;53654;54.152;19.432;2022-07-24T06:57:37;6.40;;;2.80;;
66741;SDS011;53654;54.152;19.432;2022-07-24T07:00:06;3.70;;;3.10;;
66741;SDS011;53654;54.152;19.432;2022-07-24T07:02:37;3.10;;;2.90;;
66741;SDS011;53654;54.152;19.432;2022-07-24T07:05:06;2.80;;;2.50;;
66741;SDS011;53654;54.152;19.432;2022-07-24T07:07:35;3.00;;;2.70;;
66741;SDS011;53654;54.152;19.432;2022-07-24T07:10:04;2.90;;;2.50;;
66741;SDS011;53654;54.152;19.432;2022-07-24T07:12:33;3.60;;;2.60;;
66741;SDS011;53654;54.152;19.432;2022-07-24T07:15:08;2.90;;;2.70;;
66741;SDS011;53654;54.152;19.432;2022-07-24T07:17:38;3.20;;;2.90;;
66741;SDS011;53654;54.152;19.432;2022-07-24T07:20:08;2.40;;;2.20;;
66741;SDS011;53654;54.152;19.432;2022-07-24T07:22:38;3.30;;;2.60;;
66741;SDS011;53654;54.152;19.432;2022-07-24T07:25:07;2.60;;;2.20;;
66741;SDS011;53654;54.152;19.432;2022-07-24T07:27:35;3.40;;;2.50;;
66741;SDS011;53654;54.152;19.432;2022-07-24T07:30:06;3.30;;;2.00;;
66741;SDS011;53654;54.152;19.432;2022-07-24T07:32:35;2.40;;;2.20;;
66741;SDS011;53654;54.152;19.432;2022-07-24T07:35:04;2.30;;;2.10;;
66741;SDS011;53654;54.152;19.432;2022-07-24T07:37:48;2.30;;;2.10;;
66741;SDS011;53654;54.152;19.432;2022-07-24T07:40:17;4.90;;;2.50;;
66741;SDS011;53654;54.152;19.432;2022-07-24T07:42:45;3.50;;;2.70;;
66741;SDS011;53654;54.152;19.432;2022-07-24T07:45:14;2.00;;;1.90;;
66741;SDS011;53654;54.152;19.432;2022-07-24T07:47:42;2.30;;;2.10;;
66741;SDS011;53654;54.152;19.432;2022-07-24T07:50:10;3.50;;;2.20;;
66741;SDS011;53654;54.152;19.432;2022-07-24T07:52:39;2.50;;;2.00;;
66741;SDS011;53654;54.152;19.432;2022-07-24T07:55:08;2.40;;;1.90;;
66741;SDS011;53654;54.152;19.432;2022-07-24T07:57:37;3.70;;;2.10;;
66741;SDS011;53654;54.152;19.432;2022-07-24T08:00:27;1.70;;;1.60;;
66741;SDS011;53654;54.152;19.432;2022-07-24T08:02:55;2.00;;;1.90;;
66741;SDS011;53654;54.152;19.432;2022-07-24T08:05:24;1.80;;;1.70;;
66741;SDS011;53654;54.152;19.432;2022-07-24T08:07:52;4.90;;;4.00;;
66741;SDS011;53654;54.152;19.432;2022-07-24T08:10:22;2.60;;;2.10;;
66741;SDS011;53654;54.152;19.432;2022-07-24T08:12:50;4.50;;;2.00;;
66741;SDS011;53654;54.152;19.432;2022-07-24T08:15:18;1.90;;;1.80;;
66741;SDS011;53654;54.152;19.432;2022-07-24T08:17:50;1.90;;;1.80;;
66741;SDS011;53654;54.152;19.432;2022-07-24T08:20:25;2.40;;;1.90;;
66741;SDS011;53654;54.152;19.432;2022-07-24T08:22:54;2.20;;;1.90;;
66741;SDS011;53654;54.152;19.432;2022-07-24T08:25:25;2.10;;;1.90;;
66741;SDS011;53654;54.152;19.432;2022-07-24T08:27:54;2.20;;;1.80;;
66741;SDS011;53654;54.152;19.432;2022-07-24T08:30:22;1.90;;;1.80;;
66741;SDS011;53654;54.152;19.432;2022-07-24T08:32:53;2.20;;;2.00;;
66741;SDS011;53654;54.152;19.432;2022-07-24T08:35:21;1.50;;;1.40;;
66741;SDS011;53654;54.152;19.432;2022-07-24T08:37:58;1.80;;;1.60;;
66741;SDS011;53654;54.152;19.432;2022-07-24T08:40:32;3.60;;;1.60;;
66741;SDS011;53654;54.152;19.432;2022-07-24T08:43:02;1.60;;;1.40;;
66741;SDS011;53654;54.152;19.432;2022-07-24T08:45:36;2.20;;;1.60;;
66741;SDS011;53654;54.152;19.432;2022-07-24T08:48:08;1.90;;;1.80;;
66741;SDS011;53654;54.152;19.432;2022-07-24T08:50:39;2.20;;;2.00;;
66741;SDS011;53654;54.152;19.432;2022-07-24T08:53:08;1.60;;;1.50;;
66741;SDS011;53654;54.152;19.432;2022-07-24T08:55:38;1.80;;;1.70;;
66741;SDS011;53654;54.152;19.432;2022-07-24T08:58:06;1.90;;;1.80;;
66741;SDS011;53654;54.152;19.432;2022-07-24T09:00:34;1.60;;;1.40;;
66741;SDS011;53654;54.152;19.432;2022-07-24T09:03:03;1.90;;;1.80;;
66741;SDS011;53654;54.152;19.432;2022-07-24T09:05:31;1.50;;;1.30;;
66741;SDS011;53654;54.152;19.432;2022-07-24T09:08:09;1.80;;;1.30;;
66741;SDS011;53654;54.152;19.432;2022-07-24T09:10:39;2.60;;;1.70;;
66741;SDS011;53654;54.152;19.432;2022-07-24T09:13:15;2.40;;;1.20;;
66741;SDS011;53654;54.152;19.432;2022-07-24T09:15:45;1.40;;;1.30;;
66741;SDS011;53654;54.152;19.432;2022-07-24T09:18:24;1.40;;;1.30;;
66741;SDS011;53654;54.152;19.432;2022-07-24T09:20:54;2.00;;;1.70;;
66741;SDS011;53654;54.152;19.432;2022-07-24T09:23:25;1.50;;;1.40;;
66741;SDS011;53654;54.152;19.432;2022-07-24T09:25:54;1.70;;;1.60;;
66741;SDS011;53654;54.152;19.432;2022-07-24T09:28:22;2.20;;;1.50;;
66741;SDS011;53654;54.152;19.432;2022-07-24T09:30:52;1.60;;;1.50;;
66741;SDS011;53654;54.152;19.432;2022-07-24T09:33:20;1.80;;;1.70;;
66741;SDS011;53654;54.152;19.432;2022-07-24T09:35:52;1.40;;;1.30;;
66741;SDS011;53654;54.152;19.432;2022-07-24T09:38:24;1.80;;;1.50;;
66741;SDS011;53654;54.152;19.432;2022-07-24T09:40:55;1.40;;;1.30;;
66741;SDS011;53654;54.152;19.432;2022-07-24T09:43:25;1.60;;;1.50;;
66741;SDS011;53654;54.152;19.432;2022-07-24T09:46:04;1.40;;;1.30;;
66741;SDS011;53654;54.152;19.432;2022-07-24T09:48:37;2.20;;;1.40;;
66741;SDS011;53654;54.152;19.432;2022-07-24T09:51:13;1.60;;;1.50;;
66741;SDS011;53654;54.152;19.432;2022-07-24T09:53:44;1.40;;;1.30;;
66741;SDS011;53654;54.152;19.432;2022-07-24T09:56:15;1.60;;;1.50;;
66741;SDS011;53654;54.152;19.432;2022-07-24T10:01:13;2.50;;;1.60;;
66741;SDS011;53654;54.152;19.432;2022-07-24T10:03:43;1.40;;;1.30;;
66741;SDS011;53654;54.152;19.432;2022-07-24T10:06:13;1.30;;;1.30;;
66741;SDS011;53654;54.152;19.432;2022-07-24T10:08:47;1.40;;;1.30;;
66741;SDS011;53654;54.152;19.432;2022-07-24T10:11:17;1.20;;;1.20;;
66741;SDS011;53654;54.152;19.432;2022-07-24T10:13:46;1.40;;;1.30;;
66741;SDS011;53654;54.152;19.432;2022-07-24T10:21:35;1.30;;;1.20;;
66741;SDS011;53654;54.152;19.432;2022-07-24T10:26:52;1.30;;;1.20;;
66741;SDS011;53654;54.152;19.432;2022-07-24T10:29:32;1.80;;;1.50;;
66741;SDS011;53654;54.152;19.432;2022-07-24T10:32:02;1.60;;;1.50;;
66741;SDS011;53654;54.152;19.432;2022-07-24T10:37:25;1.60;;;1.50;;
66741;SDS011;53654;54.152;19.432;2022-07-24T10:40:39;1.60;;;1.50;;
66741;SDS011;53654;54.152;19.432;2022-07-24T10:45:33;2.60;;;1.90;;
66741;SDS011;53654;54.152;19.432;2022-07-24T10:53:29;1.60;;;1.50;;
66741;SDS011;53654;54.152;19.432;2022-07-24T11:01:40;1.90;;;1.80;;
66741;SDS011;53654;54.152;19.432;2022-07-24T11:06:55;3.80;;;1.80;;
66741;SDS011;53654;54.152;19.432;2022-07-24T11:12:41;1.60;;;1.50;;
66741;SDS011;53654;54.152;19.432;2022-07-24T11:15:14;1.60;;;1.50;;
66741;SDS011;53654;54.152;19.432;2022-07-24T11:18:13;1.50;;;1.40;;
66741;SDS011;53654;54.152;19.432;2022-07-24T11:20:42;1.90;;;1.70;;
66741;SDS011;53654;54.152;19.432;2022-07-24T11:23:20;1.90;;;1.60;;
66741;SDS011;53654;54.152;19.432;2022-07-24T11:25:50;2.50;;;1.90;;
66741;SDS011;53654;54.152;19.432;2022-07-24T11:28:18;2.00;;;1.80;;
66741;SDS011;53654;54.152;19.432;2022-07-24T11:30:46;2.80;;;1.80;;
66741;SDS011;53654;54.152;19.432;2022-07-24T11:33:17;2.50;;;2.30;;
66741;SDS011;53654;54.152;19.432;2022-07-24T11:35:48;2.20;;;1.80;;
66741;SDS011;53654;54.152;19.432;2022-07-24T11:38:17;2.90;;;1.60;;
66741;SDS011;53654;54.152;19.432;2022-07-24T11:40:45;1.90;;;1.80;;
66741;SDS011;53654;54.152;19.432;2022-07-24T11:43:13;2.50;;;1.90;;
66741;SDS011;53654;54.152;19.432;2022-07-24T11:45:50;2.60;;;1.80;;
66741;SDS011;53654;54.152;19.432;2022-07-24T11:48:19;2.10;;;1.90;;
66741;SDS011;53654;54.152;19.432;2022-07-24T11:51:05;1.60;;;1.50;;
66741;SDS011;53654;54.152;19.432;2022-07-24T11:53:53;4.40;;;1.70;;
66741;SDS011;53654;54.152;19.432;2022-07-24T11:56:21;2.90;;;1.80;;
66741;SDS011;53654;54.152;19.432;2022-07-24T11:58:50;2.10;;;1.90;;
66741;SDS011;53654;54.152;19.432;2022-07-24T12:01:21;2.30;;;2.00;;
66741;SDS011;53654;54.152;19.432;2022-07-24T12:03:52;2.00;;;1.90;;
66741;SDS011;53654;54.152;19.432;2022-07-24T12:06:24;1.90;;;1.70;;
66741;SDS011;53654;54.152;19.432;2022-07-24T12:09:07;2.70;;;1.50;;
66741;SDS011;53654;54.152;19.432;2022-07-24T12:11:36;3.10;;;1.80;;
66741;SDS011;53654;54.152;19.432;2022-07-24T12:14:05;3.10;;;1.70;;
66741;SDS011;53654;54.152;19.432;2022-07-24T12:16:41;2.10;;;1.60;;
66741;SDS011;53654;54.152;19.432;2022-07-24T12:19:14;1.60;;;1.50;;
66741;SDS011;53654;54.152;19.432;2022-07-24T12:21:44;1.90;;;1.60;;
66741;SDS011;53654;54.152;19.432;2022-07-24T12:24:13;3.20;;;1.70;;
66741;SDS011;53654;54.152;19.432;2022-07-24T12:26:51;1.40;;;1.30;;
66741;SDS011;53654;54.152;19.432;2022-07-24T12:29:21;1.90;;;1.70;;
66741;SDS011;53654;54.152;19.432;2022-07-24T12:32:33;1.60;;;1.50;;
66741;SDS011;53654;54.152;19.432;2022-07-24T12:34:43;1.60;;;1.50;;
66741;SDS011;53654;54.152;19.432;2022-07-24T12:37:32;3.30;;;1.50;;
66741;SDS011;53654;54.152;19.432;2022-07-24T12:40:05;1.40;;;1.40;;
66741;SDS011;53654;54.152;19.432;2022-07-24T12:42:33;1.70;;;1.60;;
66741;SDS011;53654;54.152;19.432;2022-07-24T12:45:05;2.10;;;1.50;;
66741;SDS011;53654;54.152;19.432;2022-07-24T12:50:33;1.50;;;1.40;;
66741;SDS011;53654;54.152;19.432;2022-07-24T12:53:21;1.90;;;1.30;;
66741;SDS011;53654;54.152;19.432;2022-07-24T13:01:21;1.60;;;1.50;;
66741;SDS011;53654;54.152;19.432;2022-07-24T13:06:34;1.50;;;1.40;;
66741;SDS011;53654;54.152;19.432;2022-07-24T13:09:14;1.60;;;1.50;;
66741;SDS011;53654;54.152;19.432;2022-07-24T13:11:44;1.30;;;1.30;;
66741;SDS011;53654;54.152;19.432;2022-07-24T13:14:14;1.80;;;1.70;;
66741;SDS011;53654;54.152;19.432;2022-07-24T13:16:45;1.60;;;1.50;;
66741;SDS011;53654;54.152;19.432;2022-07-24T13:19:15;1.80;;;1.50;;
66741;SDS011;53654;54.152;19.432;2022-07-24T13:21:44;1.80;;;1.70;;
66741;SDS011;53654;54.152;19.432;2022-07-24T13:24:14;1.80;;;1.70;;
66741;SDS011;53654;54.152;19.432;2022-07-24T13:26:43;1.20;;;1.20;;
66741;SDS011;53654;54.152;19.432;2022-07-24T13:29:13;2.00;;;1.50;;
66741;SDS011;53654;54.152;19.432;2022-07-24T13:31:42;1.90;;;1.60;;
66741;SDS011;53654;54.152;19.432;2022-07-24T13:34:11;1.90;;;1.60;;
66741;SDS011;53654;54.152;19.432;2022-07-24T13:36:41;1.40;;;1.30;;
66741;SDS011;53654;54.152;19.432;2022-07-24T13:39:13;1.70;;;1.60;;
66741;SDS011;53654;54.152;19.432;2022-07-24T13:41:42;1.60;;;1.50;;
66741;SDS011;53654;54.152;19.432;2022-07-24T13:44:10;1.70;;;1.60;;
66741;SDS011;53654;54.152;19.432;2022-07-24T13:46:38;1.60;;;1.50;;
66741;SDS011;53654;54.152;19.432;2022-07-24T13:49:07;1.80;;;1.70;;
66741;SDS011;53654;54.152;19.432;2022-07-24T13:51:36;1.80;;;1.70;;
66741;SDS011;53654;54.152;19.432;2022-07-24T13:54:05;1.70;;;1.60;;
66741;SDS011;53654;54.152;19.432;2022-07-24T13:56:34;1.70;;;1.60;;
66741;SDS011;53654;54.152;19.432;2022-07-24T13:59:02;1.90;;;1.80;;
66741;SDS011;53654;54.152;19.432;2022-07-24T14:01:32;1.80;;;1.70;;
66741;SDS011;53654;54.152;19.432;2022-07-24T14:04:05;2.00;;;1.90;;
66741;SDS011;53654;54.152;19.432;2022-07-24T14:06:56;2.00;;;1.90;;
66741;SDS011;53654;54.152;19.432;2022-07-24T14:09:25;2.20;;;1.60;;
66741;SDS011;53654;54.152;19.432;2022-07-24T14:11:54;2.60;;;1.90;;
66741;SDS011;53654;54.152;19.432;2022-07-24T14:14:22;2.40;;;1.90;;
66741;SDS011;53654;54.152;19.432;2022-07-24T14:16:50;3.70;;;2.30;;
66741;SDS011;53654;54.152;19.432;2022-07-24T14:19:18;2.30;;;2.00;;
66741;SDS011;53654;54.152;19.432;2022-07-24T14:21:46;4.20;;;2.00;;
66741;SDS011;53654;54.152;19.432;2022-07-24T14:24:17;2.50;;;2.30;;
66741;SDS011;53654;54.152;19.432;2022-07-24T14:26:47;3.30;;;2.10;;
66741;SDS011;53654;54.152;19.432;2022-07-24T14:29:17;2.00;;;1.90;;
66741;SDS011;53654;54.152;19.432;2022-07-24T14:31:45;1.90;;;1.80;;
66741;SDS011;53654;54.152;19.432;2022-07-24T14:34:14;2.80;;;2.30;;
66741;SDS011;53654;54.152;19.432;2022-07-24T14:36:42;2.00;;;1.80;;
66741;SDS011;53654;54.152;19.432;2022-07-24T14:39:10;2.70;;;2.00;;
66741;SDS011;53654;54.152;19.432;2022-07-24T14:41:38;2.40;;;1.90;;
66741;SDS011;53654;54.152;19.432;2022-07-24T14:44:07;2.30;;;2.10;;
66741;SDS011;53654;54.152;19.432;2022-07-24T14:46:38;2.80;;;2.40;;
66741;SDS011;53654;54.152;19.432;2022-07-24T14:49:07;2.20;;;1.90;;
66741;SDS011;53654;54.152;19.432;2022-07-24T14:51:36;2.90;;;2.30;;
66741;SDS011;53654;54.152;19.432;2022-07-24T14:54:06;2.80;;;2.30;;
66741;SDS011;53654;54.152;19.432;2022-07-24T14:56:36;2.80;;;2.30;;
66741;SDS011;53654;54.152;19.432;2022-07-24T14:59:05;3.00;;;2.20;;
66741;SDS011;53654;54.152;19.432;2022-07-24T15:01:34;2.60;;;2.10;;
66741;SDS011;53654;54.152;19.432;2022-07-24T15:04:06;2.90;;;2.40;;
66741;SDS011;53654;54.152;19.432;2022-07-24T15:06:36;2.30;;;2.10;;
66741;SDS011;53654;54.152;19.432;2022-07-24T15:09:05;2.40;;;2.20;;
66741;SDS011;53654;54.152;19.432;2022-07-24T15:11:34;2.70;;;2.20;;
66741;SDS011;53654;54.152;19.432;2022-07-24T15:14:02;4.10;;;2.50;;
66741;SDS011;53654;54.152;19.432;2022-07-24T15:16:31;5.40;;;3.10;;
66741;SDS011;53654;54.152;19.432;2022-07-24T15:18:59;4.60;;;2.90;;
66741;SDS011;53654;54.152;19.432;2022-07-24T15:21:34;4.00;;;3.00;;
66741;SDS011;53654;54.152;19.432;2022-07-24T15:24:04;3.40;;;2.50;;
66741;SDS011;53654;54.152;19.432;2022-07-24T15:26:35;3.80;;;2.60;;
66741;SDS011;53654;54.152;19.432;2022-07-24T15:29:04;2.70;;;2.50;;
66741;SDS011;53654;54.152;19.432;2022-07-24T15:31:32;4.60;;;2.80;;
66741;SDS011;53654;54.152;19.432;2022-07-24T15:34:04;4.70;;;2.90;;